sensor_id;sensor_type;location;lat;lon;timestamp;temperature;humidity
59857;DHT22;45733;52.668;6.860;2022-10-16T00:02:12;13.10;99.90
59857;DHT22;45733;52.668;6.860;2022-10-16T00:04:38;13.20;99.90
59857;DHT22;45733;52.668;6.860;2022-10-16T00:07:07;13.20;99.90
59857;DHT22;45733;52.668;6.860;2022-10-16T00:09:51;13.20;99.90
59857;DHT22;45733;52.668;6.860;2022-10-16T00:12:17;13.10;99.90
59857;DHT22;45733;52.668;6.860;2022-10-16T00:14:48;13.20;99.90
59857;DHT22;45733;52.668;6.860;2022-10-16T00:17:49;13.10;99.90
59857;DHT22;45733;52.668;6.860;2022-10-16T00:23:16;13.20;99.90
59857;DHT22;45733;52.668;6.860;2022-10-16T00:26:22;13.20;99.90
59857;DHT22;45733;52.668;6.860;2022-10-16T00:29:06;13.20;99.90
59857;DHT22;45733;52.668;6.860;2022-10-16T00:31:32;13.30;99.90
59857;DHT22;45733;52.668;6.860;2022-10-16T00:34:04;13.30;99.90
59857;DHT22;45733;52.668;6.860;2022-10-16T00:36:34;13.30;99.90
59857;DHT22;45733;52.668;6.860;2022-10-16T00:39:11;13.30;99.90
59857;DHT22;45733;52.668;6.860;2022-10-16T00:41:40;13.30;99.90
59857;DHT22;45733;52.668;6.860;2022-10-16T00:53:11;13.30;99.90
59857;DHT22;45733;52.668;6.860;2022-10-16T00:55:43;13.30;99.90
59857;DHT22;45733;52.668;6.860;2022-10-16T00:58:29;13.30;99.90
59857;DHT22;45733;52.668;6.860;2022-10-16T01:00:55;13.30;99.90
59857;DHT22;45733;52.668;6.860;2022-10-16T01:10:27;13.30;99.90
59857;DHT22;45733;52.668;6.860;2022-10-16T01:16:05;13.30;99.90
59857;DHT22;45733;52.668;6.860;2022-10-16T01:18:44;13.30;99.90
59857;DHT22;45733;52.668;6.860;2022-10-16T01:21:32;13.30;99.90
59857;DHT22;45733;52.668;6.860;2022-10-16T01:27:34;13.20;99.90
59857;DHT22;45733;52.668;6.860;2022-10-16T01:30:33;13.20;99.90
59857;DHT22;45733;52.668;6.860;2022-10-16T01:33:20;13.30;99.90
59857;DHT22;45733;52.668;6.860;2022-10-16T01:36:26;13.20;99.90
59857;DHT22;45733;52.668;6.860;2022-10-16T01:39:09;13.20;99.90
59857;DHT22;45733;52.668;6.860;2022-10-16T01:45:21;13.20;99.90
59857;DHT22;45733;52.668;6.860;2022-10-16T01:48:00;13.10;99.90
59857;DHT22;45733;52.668;6.860;2022-10-16T01:50:50;13.10;99.90
59857;DHT22;45733;52.668;6.860;2022-10-16T01:53:47;13.10;99.90
59857;DHT22;45733;52.668;6.860;2022-10-16T01:56:22;13.10;99.90
59857;DHT22;45733;52.668;6.860;2022-10-16T01:59:02;13.00;99.90
59857;DHT22;45733;52.668;6.860;2022-10-16T02:01:36;13.00;99.90
59857;DHT22;45733;52.668;6.860;2022-10-16T02:04:24;13.00;99.90
59857;DHT22;45733;52.668;6.860;2022-10-16T02:06:52;13.00;99.90
59857;DHT22;45733;52.668;6.860;2022-10-16T02:09:22;13.00;99.90
59857;DHT22;45733;52.668;6.860;2022-10-16T02:12:08;13.00;99.90
59857;DHT22;45733;52.668;6.860;2022-10-16T02:14:38;13.00;99.90
59857;DHT22;45733;52.668;6.860;2022-10-16T02:17:14;13.00;99.90
59857;DHT22;45733;52.668;6.860;2022-10-16T02:19:41;13.00;99.90
59857;DHT22;45733;52.668;6.860;2022-10-16T02:22:10;13.10;99.90
59857;DHT22;45733;52.668;6.860;2022-10-16T02:25:03;13.00;99.90
59857;DHT22;45733;52.668;6.860;2022-10-16T02:27:49;13.10;99.90
59857;DHT22;45733;52.668;6.860;2022-10-16T02:32:47;13.10;99.90
59857;DHT22;45733;52.668;6.860;2022-10-16T02:35:17;13.10;99.90
59857;DHT22;45733;52.668;6.860;2022-10-16T02:37:47;13.10;99.90
59857;DHT22;45733;52.668;6.860;2022-10-16T02:40:14;13.10;99.90
59857;DHT22;45733;52.668;6.860;2022-10-16T02:42:41;13.20;99.90
59857;DHT22;45733;52.668;6.860;2022-10-16T02:45:08;13.20;99.90
59857;DHT22;45733;52.668;6.860;2022-10-16T02:47:37;13.20;99.90
59857;DHT22;45733;52.668;6.860;2022-10-16T02:50:04;13.20;99.90
59857;DHT22;45733;52.668;6.860;2022-10-16T02:52:29;13.20;99.90
59857;DHT22;45733;52.668;6.860;2022-10-16T02:54:55;13.30;99.90
59857;DHT22;45733;52.668;6.860;2022-10-16T02:57:21;13.40;99.90
59857;DHT22;45733;52.668;6.860;2022-10-16T02:59:47;13.40;99.90
59857;DHT22;45733;52.668;6.860;2022-10-16T03:02:25;13.50;99.90
59857;DHT22;45733;52.668;6.860;2022-10-16T03:04:51;13.50;99.90
59857;DHT22;45733;52.668;6.860;2022-10-16T03:07:20;13.50;99.90
59857;DHT22;45733;52.668;6.860;2022-10-16T03:10:07;13.50;99.90
59857;DHT22;45733;52.668;6.860;2022-10-16T03:12:44;13.50;99.90
59857;DHT22;45733;52.668;6.860;2022-10-16T03:15:10;13.50;99.90
59857;DHT22;45733;52.668;6.860;2022-10-16T03:17:39;13.50;99.90
59857;DHT22;45733;52.668;6.860;2022-10-16T03:20:05;13.60;99.90
59857;DHT22;45733;52.668;6.860;2022-10-16T03:22:46;13.60;99.90
59857;DHT22;45733;52.668;6.860;2022-10-16T03:25:15;13.60;99.90
59857;DHT22;45733;52.668;6.860;2022-10-16T03:27:46;13.60;99.90
59857;DHT22;45733;52.668;6.860;2022-10-16T03:30:19;13.70;99.90
59857;DHT22;45733;52.668;6.860;2022-10-16T03:32:48;13.60;99.90
59857;DHT22;45733;52.668;6.860;2022-10-16T03:35:37;13.70;99.90
59857;DHT22;45733;52.668;6.860;2022-10-16T03:38:09;13.70;99.90
59857;DHT22;45733;52.668;6.860;2022-10-16T03:40:55;13.70;99.90
59857;DHT22;45733;52.668;6.860;2022-10-16T03:43:33;13.70;99.90
59857;DHT22;45733;52.668;6.860;2022-10-16T03:46:13;13.70;99.90
59857;DHT22;45733;52.668;6.860;2022-10-16T03:49:05;13.70;99.90
59857;DHT22;45733;52.668;6.860;2022-10-16T03:51:30;13.70;99.90
59857;DHT22;45733;52.668;6.860;2022-10-16T03:53:56;13.70;99.90
59857;DHT22;45733;52.668;6.860;2022-10-16T03:56:40;13.60;99.90
59857;DHT22;45733;52.668;6.860;2022-10-16T03:59:06;13.70;99.90
59857;DHT22;45733;52.668;6.860;2022-10-16T04:01:41;13.60;99.90
59857;DHT22;45733;52.668;6.860;2022-10-16T04:04:14;13.70;99.90
59857;DHT22;45733;52.668;6.860;2022-10-16T04:06:40;13.60;99.90
59857;DHT22;45733;52.668;6.860;2022-10-16T04:09:09;13.60;99.90
59857;DHT22;45733;52.668;6.860;2022-10-16T04:11:42;13.60;99.90
59857;DHT22;45733;52.668;6.860;2022-10-16T04:14:11;13.60;99.90
59857;DHT22;45733;52.668;6.860;2022-10-16T04:16:37;13.60;99.90
59857;DHT22;45733;52.668;6.860;2022-10-16T04:19:06;13.60;99.90
59857;DHT22;45733;52.668;6.860;2022-10-16T04:21:40;13.60;99.90
59857;DHT22;45733;52.668;6.860;2022-10-16T04:24:09;13.60;99.90
59857;DHT22;45733;52.668;6.860;2022-10-16T04:26:37;13.60;99.90
59857;DHT22;45733;52.668;6.860;2022-10-16T04:29:03;13.60;99.90
59857;DHT22;45733;52.668;6.860;2022-10-16T04:31:29;13.60;99.90
59857;DHT22;45733;52.668;6.860;2022-10-16T04:33:55;13.50;99.90
59857;DHT22;45733;52.668;6.860;2022-10-16T04:36:21;13.50;99.90
59857;DHT22;45733;52.668;6.860;2022-10-16T04:38:47;13.50;99.90
59857;DHT22;45733;52.668;6.860;2022-10-16T04:41:13;13.50;99.90
59857;DHT22;45733;52.668;6.860;2022-10-16T04:43:39;13.40;99.90
59857;DHT22;45733;52.668;6.860;2022-10-16T04:46:05;13.50;99.90
59857;DHT22;45733;52.668;6.860;2022-10-16T04:48:33;13.50;99.90
59857;DHT22;45733;52.668;6.860;2022-10-16T04:50:59;13.50;99.90
59857;DHT22;45733;52.668;6.860;2022-10-16T04:53:25;13.50;99.90
59857;DHT22;45733;52.668;6.860;2022-10-16T04:55:51;13.40;99.90
59857;DHT22;45733;52.668;6.860;2022-10-16T04:58:18;13.40;99.90
59857;DHT22;45733;52.668;6.860;2022-10-16T05:00:44;13.40;99.90
59857;DHT22;45733;52.668;6.860;2022-10-16T05:03:12;13.40;99.90
59857;DHT22;45733;52.668;6.860;2022-10-16T05:05:43;13.40;99.90
59857;DHT22;45733;52.668;6.860;2022-10-16T05:08:10;13.40;99.90
59857;DHT22;45733;52.668;6.860;2022-10-16T05:10:41;13.40;99.90
59857;DHT22;45733;52.668;6.860;2022-10-16T05:13:07;13.40;99.90
59857;DHT22;45733;52.668;6.860;2022-10-16T05:15:33;13.40;99.90
59857;DHT22;45733;52.668;6.860;2022-10-16T05:17:59;13.30;99.90
59857;DHT22;45733;52.668;6.860;2022-10-16T05:20:25;13.40;99.90
59857;DHT22;45733;52.668;6.860;2022-10-16T05:22:51;13.30;99.90
59857;DHT22;45733;52.668;6.860;2022-10-16T05:25:17;13.30;99.90
59857;DHT22;45733;52.668;6.860;2022-10-16T05:27:47;13.20;99.90
59857;DHT22;45733;52.668;6.860;2022-10-16T05:30:14;13.20;99.90
59857;DHT22;45733;52.668;6.860;2022-10-16T05:32:45;13.20;99.90
59857;DHT22;45733;52.668;6.860;2022-10-16T05:35:13;13.20;99.90
59857;DHT22;45733;52.668;6.860;2022-10-16T05:37:42;13.20;99.90
59857;DHT22;45733;52.668;6.860;2022-10-16T05:40:09;13.20;99.90
59857;DHT22;45733;52.668;6.860;2022-10-16T05:42:35;13.20;99.90
59857;DHT22;45733;52.668;6.860;2022-10-16T05:45:04;13.30;99.90
59857;DHT22;45733;52.668;6.860;2022-10-16T05:47:31;13.20;99.90
59857;DHT22;45733;52.668;6.860;2022-10-16T05:49:57;13.20;99.90
59857;DHT22;45733;52.668;6.860;2022-10-16T05:52:23;13.20;99.90
59857;DHT22;45733;52.668;6.860;2022-10-16T05:54:48;13.20;99.90
59857;DHT22;45733;52.668;6.860;2022-10-16T05:57:18;13.20;99.90
59857;DHT22;45733;52.668;6.860;2022-10-16T06:00:20;13.20;99.90
59857;DHT22;45733;52.668;6.860;2022-10-16T06:02:48;13.20;99.90
59857;DHT22;45733;52.668;6.860;2022-10-16T06:05:19;13.10;99.90
59857;DHT22;45733;52.668;6.860;2022-10-16T06:07:50;13.20;99.90
59857;DHT22;45733;52.668;6.860;2022-10-16T06:10:18;13.10;99.90
59857;DHT22;45733;52.668;6.860;2022-10-16T06:12:44;13.10;99.90
59857;DHT22;45733;52.668;6.860;2022-10-16T06:15:10;13.10;99.90
59857;DHT22;45733;52.668;6.860;2022-10-16T06:17:36;13.10;99.90
59857;DHT22;45733;52.668;6.860;2022-10-16T06:20:08;13.10;99.90
59857;DHT22;45733;52.668;6.860;2022-10-16T06:22:34;13.10;99.90
59857;DHT22;45733;52.668;6.860;2022-10-16T06:25:05;13.10;99.90
59857;DHT22;45733;52.668;6.860;2022-10-16T06:27:31;13.10;99.90
59857;DHT22;45733;52.668;6.860;2022-10-16T06:29:57;13.10;99.90
59857;DHT22;45733;52.668;6.860;2022-10-16T06:32:33;13.20;99.90
59857;DHT22;45733;52.668;6.860;2022-10-16T06:35:08;13.20;99.90
59857;DHT22;45733;52.668;6.860;2022-10-16T06:37:48;13.20;99.90
59857;DHT22;45733;52.668;6.860;2022-10-16T06:40:17;13.20;99.90
59857;DHT22;45733;52.668;6.860;2022-10-16T06:42:43;13.20;99.90
59857;DHT22;45733;52.668;6.860;2022-10-16T06:45:18;13.20;99.90
59857;DHT22;45733;52.668;6.860;2022-10-16T06:48:07;13.20;99.90
59857;DHT22;45733;52.668;6.860;2022-10-16T06:50:36;13.30;99.90
59857;DHT22;45733;52.668;6.860;2022-10-16T06:53:11;13.30;99.90
59857;DHT22;45733;52.668;6.860;2022-10-16T06:55:48;13.30;99.90
59857;DHT22;45733;52.668;6.860;2022-10-16T06:58:14;13.40;99.90
59857;DHT22;45733;52.668;6.860;2022-10-16T07:00:43;13.40;99.90
59857;DHT22;45733;52.668;6.860;2022-10-16T07:03:12;13.30;99.90
59857;DHT22;45733;52.668;6.860;2022-10-16T07:05:42;13.30;99.90
59857;DHT22;45733;52.668;6.860;2022-10-16T07:08:08;13.30;99.90
59857;DHT22;45733;52.668;6.860;2022-10-16T07:10:38;13.40;99.90
59857;DHT22;45733;52.668;6.860;2022-10-16T07:13:06;13.50;99.90
59857;DHT22;45733;52.668;6.860;2022-10-16T07:15:36;13.50;99.90
59857;DHT22;45733;52.668;6.860;2022-10-16T07:18:02;13.60;99.90
59857;DHT22;45733;52.668;6.860;2022-10-16T07:20:42;13.70;99.90
59857;DHT22;45733;52.668;6.860;2022-10-16T07:23:14;13.90;99.90
59857;DHT22;45733;52.668;6.860;2022-10-16T07:25:45;14.20;99.90
59857;DHT22;45733;52.668;6.860;2022-10-16T07:28:26;14.40;99.90
59857;DHT22;45733;52.668;6.860;2022-10-16T07:31:01;14.40;99.90
59857;DHT22;45733;52.668;6.860;2022-10-16T07:33:34;14.20;99.90
59857;DHT22;45733;52.668;6.860;2022-10-16T07:36:28;14.10;99.90
59857;DHT22;45733;52.668;6.860;2022-10-16T07:39:00;14.00;99.90
59857;DHT22;45733;52.668;6.860;2022-10-16T07:42:08;14.00;99.90
59857;DHT22;45733;52.668;6.860;2022-10-16T07:44:43;14.10;99.90
59857;DHT22;45733;52.668;6.860;2022-10-16T07:47:45;14.10;99.90
59857;DHT22;45733;52.668;6.860;2022-10-16T07:50:34;14.20;99.90
59857;DHT22;45733;52.668;6.860;2022-10-16T07:53:00;14.30;99.90
59857;DHT22;45733;52.668;6.860;2022-10-16T07:55:25;14.30;99.90
59857;DHT22;45733;52.668;6.860;2022-10-16T07:57:55;14.40;99.90
59857;DHT22;45733;52.668;6.860;2022-10-16T08:00:26;14.40;99.90
59857;DHT22;45733;52.668;6.860;2022-10-16T08:03:03;14.30;99.90
59857;DHT22;45733;52.668;6.860;2022-10-16T08:05:42;14.30;99.90
59857;DHT22;45733;52.668;6.860;2022-10-16T08:08:14;14.30;99.90
59857;DHT22;45733;52.668;6.860;2022-10-16T08:10:44;14.30;99.90
59857;DHT22;45733;52.668;6.860;2022-10-16T08:13:30;14.30;99.90
59857;DHT22;45733;52.668;6.860;2022-10-16T08:16:19;14.40;99.90
59857;DHT22;45733;52.668;6.860;2022-10-16T08:18:49;14.30;99.90
59857;DHT22;45733;52.668;6.860;2022-10-16T08:21:20;14.40;99.90
59857;DHT22;45733;52.668;6.860;2022-10-16T08:23:46;14.40;99.90
59857;DHT22;45733;52.668;6.860;2022-10-16T08:26:20;14.60;99.90
59857;DHT22;45733;52.668;6.860;2022-10-16T08:28:55;14.70;99.90
59857;DHT22;45733;52.668;6.860;2022-10-16T08:31:30;14.80;99.90
59857;DHT22;45733;52.668;6.860;2022-10-16T08:34:02;14.90;99.90
59857;DHT22;45733;52.668;6.860;2022-10-16T08:36:30;14.90;99.90
59857;DHT22;45733;52.668;6.860;2022-10-16T08:39:05;14.90;99.90
59857;DHT22;45733;52.668;6.860;2022-10-16T08:47:26;14.90;99.90
59857;DHT22;45733;52.668;6.860;2022-10-16T08:50:10;15.00;99.90
59857;DHT22;45733;52.668;6.860;2022-10-16T08:52:40;15.30;99.90
59857;DHT22;45733;52.668;6.860;2022-10-16T08:55:42;15.50;99.90
59857;DHT22;45733;52.668;6.860;2022-10-16T08:58:20;15.50;99.90
59857;DHT22;45733;52.668;6.860;2022-10-16T09:01:14;15.60;99.90
59857;DHT22;45733;52.668;6.860;2022-10-16T09:06:59;15.60;99.90
59857;DHT22;45733;52.668;6.860;2022-10-16T09:16:22;16.00;99.90
59857;DHT22;45733;52.668;6.860;2022-10-16T09:21:53;16.10;99.90
59857;DHT22;45733;52.668;6.860;2022-10-16T09:24:29;16.10;99.90
59857;DHT22;45733;52.668;6.860;2022-10-16T09:27:00;16.20;99.90
59857;DHT22;45733;52.668;6.860;2022-10-16T09:29:26;16.30;99.90
59857;DHT22;45733;52.668;6.860;2022-10-16T09:32:12;16.30;99.90
59857;DHT22;45733;52.668;6.860;2022-10-16T09:34:47;16.40;99.90
59857;DHT22;45733;52.668;6.860;2022-10-16T09:37:38;16.40;99.90
59857;DHT22;45733;52.668;6.860;2022-10-16T09:40:12;16.60;99.90
59857;DHT22;45733;52.668;6.860;2022-10-16T09:42:47;16.60;99.90
59857;DHT22;45733;52.668;6.860;2022-10-16T09:45:24;16.70;99.90
59857;DHT22;45733;52.668;6.860;2022-10-16T09:47:50;16.80;99.90
59857;DHT22;45733;52.668;6.860;2022-10-16T09:50:27;16.80;99.90
59857;DHT22;45733;52.668;6.860;2022-10-16T09:53:10;16.90;99.90
59857;DHT22;45733;52.668;6.860;2022-10-16T09:55:49;16.80;99.90
59857;DHT22;45733;52.668;6.860;2022-10-16T09:58:21;16.80;99.90
59857;DHT22;45733;52.668;6.860;2022-10-16T10:00:54;16.90;99.90
59857;DHT22;45733;52.668;6.860;2022-10-16T10:03:38;16.90;99.90
59857;DHT22;45733;52.668;6.860;2022-10-16T10:06:35;17.00;99.90
59857;DHT22;45733;52.668;6.860;2022-10-16T10:12:01;17.30;99.90
59857;DHT22;45733;52.668;6.860;2022-10-16T10:14:46;17.30;99.90
59857;DHT22;45733;52.668;6.860;2022-10-16T10:17:16;17.40;99.90
59857;DHT22;45733;52.668;6.860;2022-10-16T10:22:40;17.30;99.90
59857;DHT22;45733;52.668;6.860;2022-10-16T10:30:50;17.60;99.90
59857;DHT22;45733;52.668;6.860;2022-10-16T10:36:13;18.10;99.90
59857;DHT22;45733;52.668;6.860;2022-10-16T10:41:52;18.30;99.90
59857;DHT22;45733;52.668;6.860;2022-10-16T10:55:33;18.70;99.90
59857;DHT22;45733;52.668;6.860;2022-10-16T11:06:26;18.80;99.90
59857;DHT22;45733;52.668;6.860;2022-10-16T11:08:59;18.80;99.90
59857;DHT22;45733;52.668;6.860;2022-10-16T11:11:30;18.50;99.90
59857;DHT22;45733;52.668;6.860;2022-10-16T11:17:30;17.90;99.90
59857;DHT22;45733;52.668;6.860;2022-10-16T11:25:46;17.90;99.90
59857;DHT22;45733;52.668;6.860;2022-10-16T11:28:29;17.80;99.90
59857;DHT22;45733;52.668;6.860;2022-10-16T11:31:05;17.80;99.90
59857;DHT22;45733;52.668;6.860;2022-10-16T11:33:41;18.30;99.90
59857;DHT22;45733;52.668;6.860;2022-10-16T11:36:42;18.40;99.90
59857;DHT22;45733;52.668;6.860;2022-10-16T11:39:21;18.50;99.90
59857;DHT22;45733;52.668;6.860;2022-10-16T11:42:23;19.00;99.90
59857;DHT22;45733;52.668;6.860;2022-10-16T11:50:57;18.70;99.90
59857;DHT22;45733;52.668;6.860;2022-10-16T11:53:46;18.90;99.90
59857;DHT22;45733;52.668;6.860;2022-10-16T11:56:38;18.40;99.90
59857;DHT22;45733;52.668;6.860;2022-10-16T11:59:28;19.10;99.90
59857;DHT22;45733;52.668;6.860;2022-10-16T12:02:20;19.10;99.90
59857;DHT22;45733;52.668;6.860;2022-10-16T12:04:53;18.70;99.90
59857;DHT22;45733;52.668;6.860;2022-10-16T12:07:34;18.80;99.90
59857;DHT22;45733;52.668;6.860;2022-10-16T12:10:27;19.00;99.90
59857;DHT22;45733;52.668;6.860;2022-10-16T12:12:54;18.60;99.90
59857;DHT22;45733;52.668;6.860;2022-10-16T12:15:25;18.80;99.90
59857;DHT22;45733;52.668;6.860;2022-10-16T12:20:35;18.30;99.90
59857;DHT22;45733;52.668;6.860;2022-10-16T12:23:20;18.30;99.90
59857;DHT22;45733;52.668;6.860;2022-10-16T12:26:00;18.40;99.90
59857;DHT22;45733;52.668;6.860;2022-10-16T12:28:32;18.70;99.90
59857;DHT22;45733;52.668;6.860;2022-10-16T12:31:06;19.00;99.90
59857;DHT22;45733;52.668;6.860;2022-10-16T12:36:31;19.10;99.90
59857;DHT22;45733;52.668;6.860;2022-10-16T12:38:59;19.50;99.90
59857;DHT22;45733;52.668;6.860;2022-10-16T12:41:27;19.80;99.90
59857;DHT22;45733;52.668;6.860;2022-10-16T12:43:53;19.70;99.90
59857;DHT22;45733;52.668;6.860;2022-10-16T12:46:41;20.00;99.90
59857;DHT22;45733;52.668;6.860;2022-10-16T12:51:47;19.90;99.90
59857;DHT22;45733;52.668;6.860;2022-10-16T12:54:43;19.80;99.90
59857;DHT22;45733;52.668;6.860;2022-10-16T13:00:22;20.20;99.90
59857;DHT22;45733;52.668;6.860;2022-10-16T13:11:12;20.10;99.90
59857;DHT22;45733;52.668;6.860;2022-10-16T13:23:09;20.20;99.90
59857;DHT22;45733;52.668;6.860;2022-10-16T13:26:16;19.80;99.90
59857;DHT22;45733;52.668;6.860;2022-10-16T13:28:48;19.90;99.90
59857;DHT22;45733;52.668;6.860;2022-10-16T13:31:23;19.70;99.90
59857;DHT22;45733;52.668;6.860;2022-10-16T13:33:59;19.80;99.90
59857;DHT22;45733;52.668;6.860;2022-10-16T13:36:42;19.90;99.90
59857;DHT22;45733;52.668;6.860;2022-10-16T13:39:20;19.40;99.90
59857;DHT22;45733;52.668;6.860;2022-10-16T13:42:10;19.50;99.90
59857;DHT22;45733;52.668;6.860;2022-10-16T13:44:55;19.80;99.90
59857;DHT22;45733;52.668;6.860;2022-10-16T13:47:29;19.80;99.90
59857;DHT22;45733;52.668;6.860;2022-10-16T13:50:33;19.90;99.90
59857;DHT22;45733;52.668;6.860;2022-10-16T13:53:22;19.90;99.90
59857;DHT22;45733;52.668;6.860;2022-10-16T13:56:00;19.70;99.90
59857;DHT22;45733;52.668;6.860;2022-10-16T13:58:33;19.60;99.90
59857;DHT22;45733;52.668;6.860;2022-10-16T14:01:02;19.50;99.90
59857;DHT22;45733;52.668;6.860;2022-10-16T14:03:33;19.50;99.90
59857;DHT22;45733;52.668;6.860;2022-10-16T14:06:03;19.50;99.90
59857;DHT22;45733;52.668;6.860;2022-10-16T14:08:33;19.60;99.90
59857;DHT22;45733;52.668;6.860;2022-10-16T14:11:01;19.60;99.90
59857;DHT22;45733;52.668;6.860;2022-10-16T14:13:36;19.50;99.90
59857;DHT22;45733;52.668;6.860;2022-10-16T14:16:08;19.60;99.90
59857;DHT22;45733;52.668;6.860;2022-10-16T14:18:37;19.60;99.90
59857;DHT22;45733;52.668;6.860;2022-10-16T14:21:06;19.50;99.90
59857;DHT22;45733;52.668;6.860;2022-10-16T14:23:37;19.50;99.90
59857;DHT22;45733;52.668;6.860;2022-10-16T14:28:42;19.20;99.90
59857;DHT22;45733;52.668;6.860;2022-10-16T14:31:30;19.10;99.90
59857;DHT22;45733;52.668;6.860;2022-10-16T14:33:57;18.70;99.90
59857;DHT22;45733;52.668;6.860;2022-10-16T14:36:25;18.60;99.90
59857;DHT22;45733;52.668;6.860;2022-10-16T14:39:06;18.50;99.90
59857;DHT22;45733;52.668;6.860;2022-10-16T14:41:45;18.20;99.90
59857;DHT22;45733;52.668;6.860;2022-10-16T14:44:13;18.20;99.90
59857;DHT22;45733;52.668;6.860;2022-10-16T14:46:43;18.10;99.90
59857;DHT22;45733;52.668;6.860;2022-10-16T14:51:35;18.00;99.90
59857;DHT22;45733;52.668;6.860;2022-10-16T14:54:01;18.00;99.90
59857;DHT22;45733;52.668;6.860;2022-10-16T14:56:40;17.90;99.90
59857;DHT22;45733;52.668;6.860;2022-10-16T14:59:13;17.80;99.90
59857;DHT22;45733;52.668;6.860;2022-10-16T15:01:43;17.70;99.90
59857;DHT22;45733;52.668;6.860;2022-10-16T15:04:12;17.60;99.90
59857;DHT22;45733;52.668;6.860;2022-10-16T15:06:38;17.60;99.90
59857;DHT22;45733;52.668;6.860;2022-10-16T15:09:04;17.60;99.90
59857;DHT22;45733;52.668;6.860;2022-10-16T15:11:32;17.50;99.90
59857;DHT22;45733;52.668;6.860;2022-10-16T15:13:58;17.50;99.90
59857;DHT22;45733;52.668;6.860;2022-10-16T15:16:24;17.40;99.90
59857;DHT22;45733;52.668;6.860;2022-10-16T15:18:50;17.40;99.90
59857;DHT22;45733;52.668;6.860;2022-10-16T15:21:28;17.30;99.90
59857;DHT22;45733;52.668;6.860;2022-10-16T15:23:54;17.20;99.90
59857;DHT22;45733;52.668;6.860;2022-10-16T15:26:25;17.20;99.90
59857;DHT22;45733;52.668;6.860;2022-10-16T15:28:52;17.10;99.90
59857;DHT22;45733;52.668;6.860;2022-10-16T15:31:18;17.00;99.90
59857;DHT22;45733;52.668;6.860;2022-10-16T15:33:44;16.90;99.90
59857;DHT22;45733;52.668;6.860;2022-10-16T15:36:16;16.80;99.90
59857;DHT22;45733;52.668;6.860;2022-10-16T15:38:42;16.80;99.90
59857;DHT22;45733;52.668;6.860;2022-10-16T15:41:09;16.70;99.90
59857;DHT22;45733;52.668;6.860;2022-10-16T15:43:35;16.60;99.90
59857;DHT22;45733;52.668;6.860;2022-10-16T15:46:06;16.60;99.90
59857;DHT22;45733;52.668;6.860;2022-10-16T15:48:34;16.50;99.90
59857;DHT22;45733;52.668;6.860;2022-10-16T15:51:00;16.60;99.90
59857;DHT22;45733;52.668;6.860;2022-10-16T15:53:30;16.50;99.90
59857;DHT22;45733;52.668;6.860;2022-10-16T15:55:55;16.50;99.90
59857;DHT22;45733;52.668;6.860;2022-10-16T15:58:22;16.40;99.90
59857;DHT22;45733;52.668;6.860;2022-10-16T16:00:55;16.40;99.90
59857;DHT22;45733;52.668;6.860;2022-10-16T16:03:21;16.20;99.90
59857;DHT22;45733;52.668;6.860;2022-10-16T16:05:47;16.20;99.90
59857;DHT22;45733;52.668;6.860;2022-10-16T16:08:13;16.10;99.90
59857;DHT22;45733;52.668;6.860;2022-10-16T16:10:39;16.00;99.90
59857;DHT22;45733;52.668;6.860;2022-10-16T16:13:05;16.00;99.90
59857;DHT22;45733;52.668;6.860;2022-10-16T16:15:30;15.90;99.90
59857;DHT22;45733;52.668;6.860;2022-10-16T16:17:56;15.90;99.90
59857;DHT22;45733;52.668;6.860;2022-10-16T16:20:22;15.80;99.90
59857;DHT22;45733;52.668;6.860;2022-10-16T16:22:48;15.70;99.90
59857;DHT22;45733;52.668;6.860;2022-10-16T16:25:14;15.70;99.90
59857;DHT22;45733;52.668;6.860;2022-10-16T16:27:40;15.70;99.90
59857;DHT22;45733;52.668;6.860;2022-10-16T16:30:10;15.60;99.90
59857;DHT22;45733;52.668;6.860;2022-10-16T16:32:36;15.60;99.90
59857;DHT22;45733;52.668;6.860;2022-10-16T16:35:03;15.30;99.90
59857;DHT22;45733;52.668;6.860;2022-10-16T16:37:29;14.90;99.90
59857;DHT22;45733;52.668;6.860;2022-10-16T16:39:55;14.90;99.90
59857;DHT22;45733;52.668;6.860;2022-10-16T16:42:27;14.90;99.90
59857;DHT22;45733;52.668;6.860;2022-10-16T16:44:53;14.70;99.90
59857;DHT22;45733;52.668;6.860;2022-10-16T16:47:19;14.50;99.90
59857;DHT22;45733;52.668;6.860;2022-10-16T16:49:45;14.40;99.90
59857;DHT22;45733;52.668;6.860;2022-10-16T16:52:14;14.30;99.90
59857;DHT22;45733;52.668;6.860;2022-10-16T16:54:40;14.30;99.90
59857;DHT22;45733;52.668;6.860;2022-10-16T16:57:06;14.20;99.90
59857;DHT22;45733;52.668;6.860;2022-10-16T16:59:32;14.30;99.90
59857;DHT22;45733;52.668;6.860;2022-10-16T17:02:03;14.30;99.90
59857;DHT22;45733;52.668;6.860;2022-10-16T17:04:29;14.30;99.90
59857;DHT22;45733;52.668;6.860;2022-10-16T17:06:55;14.30;99.90
59857;DHT22;45733;52.668;6.860;2022-10-16T17:09:22;14.30;99.90
59857;DHT22;45733;52.668;6.860;2022-10-16T17:11:48;14.20;99.90
59857;DHT22;45733;52.668;6.860;2022-10-16T17:14:14;14.20;99.90
59857;DHT22;45733;52.668;6.860;2022-10-16T17:16:43;14.20;99.90
59857;DHT22;45733;52.668;6.860;2022-10-16T17:19:13;14.20;99.90
59857;DHT22;45733;52.668;6.860;2022-10-16T17:21:50;14.10;99.90
59857;DHT22;45733;52.668;6.860;2022-10-16T17:24:16;14.10;99.90
59857;DHT22;45733;52.668;6.860;2022-10-16T17:26:44;13.90;99.90
59857;DHT22;45733;52.668;6.860;2022-10-16T17:29:14;13.90;99.90
59857;DHT22;45733;52.668;6.860;2022-10-16T17:31:40;13.70;99.90
59857;DHT22;45733;52.668;6.860;2022-10-16T17:34:07;13.70;99.90
59857;DHT22;45733;52.668;6.860;2022-10-16T17:36:36;13.60;99.90
59857;DHT22;45733;52.668;6.860;2022-10-16T17:39:05;13.60;99.90
59857;DHT22;45733;52.668;6.860;2022-10-16T17:41:32;13.80;99.90
59857;DHT22;45733;52.668;6.860;2022-10-16T17:44:00;13.90;99.90
59857;DHT22;45733;52.668;6.860;2022-10-16T17:46:26;14.00;99.90
59857;DHT22;45733;52.668;6.860;2022-10-16T17:48:54;14.00;99.90
59857;DHT22;45733;52.668;6.860;2022-10-16T17:51:24;14.00;99.90
59857;DHT22;45733;52.668;6.860;2022-10-16T17:53:52;13.90;99.90
59857;DHT22;45733;52.668;6.860;2022-10-16T17:56:18;13.70;99.90
59857;DHT22;45733;52.668;6.860;2022-10-16T17:58:48;13.60;99.90
59857;DHT22;45733;52.668;6.860;2022-10-16T18:01:27;13.40;99.90
59857;DHT22;45733;52.668;6.860;2022-10-16T18:03:59;13.30;99.90
59857;DHT22;45733;52.668;6.860;2022-10-16T18:06:27;13.30;99.90
59857;DHT22;45733;52.668;6.860;2022-10-16T18:08:53;13.30;99.90
59857;DHT22;45733;52.668;6.860;2022-10-16T18:11:20;13.30;99.90
59857;DHT22;45733;52.668;6.860;2022-10-16T18:13:54;13.30;99.90
59857;DHT22;45733;52.668;6.860;2022-10-16T18:16:26;13.20;99.90
59857;DHT22;45733;52.668;6.860;2022-10-16T18:18:53;13.20;99.90
59857;DHT22;45733;52.668;6.860;2022-10-16T18:21:21;13.20;99.90
59857;DHT22;45733;52.668;6.860;2022-10-16T18:23:49;13.20;99.90